logo
Rechercher aéroport 
image banner adimage banner adimage banner ad
image banner ad

32CA - Stone Airstrip

Situé à Lemoore, United States

ICAO - 32CA, IATA -

Données fournies par Airmate  

Information générale

Coordonnées: N36°19'60" W119°49'30"
Élévation : 220 feet MSL.
Variation magnétique : 15° East
Voir autres Aéroports à California

Données opérationnelles

Special qualification required
Heure actuelle UTC:
Heure actuelle locale:
Météo à : KNLC - Lemoore Nas (Reeves Fld) ( 11 km )
METAR: KNLC 261656Z 34007KT 10SM FEW110 27/12 A2995 RMK AO2 SLP141 RH/36 T02720117
TAF: TAF KNLC 2615/2715 31005KT 9999 FEW090 FEW110 QNH2991INS FM261700 35010KT 9999 FEW090 QNH2977INS TEMPO 2618/2623 VRB06KT T37/2623Z T18/2713Z FS30067
Voir NOTAMs / SUP AIP / TFR affectant cet aéroport [VIEW]
Fréquences de communication: [VIEW]

Pistes:

Identifiant RWYQFULongueur (ft)Largeur (ft)SurfaceLDA (ft)
16254030ASPH
34254030ASPH

Coordonnées de l'aéroport

Adresse: Lemoore United States

Vue satellite de 32CA